Time;durP1;ratioP1;P1;durP2;ratioP2;P2;SDS_P1;SDS_P2;PMS_P1;PMS_P2;Temp;Humidity;BMP_temperature;BMP_pressure;BME280_temperature;BME280_humidity;BME280_pressure;Samples;Min_cycle;Max_cycle;Signal;HPM_P1;HPM_P2
2022/11/14 00:03:36;;;;;;;9.43;4.72;;;;;;;8.26;74.69;101672.59;1868991;74;22645;-71
2022/11/14 00:06:21;;;;;;;10.00;5.10;;;;;;;8.31;74.12;101678.94;1847878;75;21017;-71
2022/11/14 00:09:06;;;;;;;9.30;5.35;;;;;;;8.25;74.08;101681.37;1775299;78;21129;-71
2022/11/14 00:11:53;;;;;;;6.80;3.12;;;;;;;8.13;73.60;101684.61;1760412;80;20901;-71
2022/11/14 00:14:37;;;;;;;9.88;5.10;;;;;;;7.94;73.28;101688.60;1784474;80;20932;-70
2022/11/14 00:17:23;;;;;;;;;;;;;;;7.75;72.95;101690.78;1776102;78;20895;-71
2022/11/14 00:20:10;;;;;;;8.90;5.15;;;;;;;7.67;72.64;101692.08;1800183;78;20140;-70
2022/11/14 00:22:56;;;;;;;7.33;4.17;;;;;;;7.55;72.90;101690.41;1806479;78;21845;-71
2022/11/14 00:25:44;;;;;;;9.30;4.97;;;;;;;7.46;73.58;101686.05;1786585;78;20986;-71
2022/11/14 00:28:29;;;;;;;10.30;5.85;;;;;;;7.41;74.11;101686.25;1806496;78;21078;-70
2022/11/14 00:31:14;;;;;;;16.48;9.48;;;;;;;7.41;74.34;101687.56;1771661;80;21491;-71
2022/11/14 00:33:59;;;;;;;12.43;7.93;;;;;;;7.42;74.36;101684.03;1788447;80;21011;-71
2022/11/14 00:36:46;;;;;;;;;;;;;;;7.39;74.37;101681.55;1783629;80;21147;-71
2022/11/14 00:39:31;;;;;;;9.60;6.70;;;;;;;7.30;74.60;101681.98;1767299;80;20164;-68
2022/11/14 00:42:16;;;;;;;10.72;6.72;;;;;;;7.16;74.75;101682.16;1790931;78;21030;-70
2022/11/14 00:45:02;;;;;;;8.15;2.72;;;;;;;7.04;74.88;101691.41;1785386;79;21535;-70
2022/11/14 00:47:48;;;;;;;8.88;5.90;;;;;;;6.96;74.91;101688.70;1797974;79;21007;-70
2022/11/14 00:50:34;;;;;;;7.70;3.10;;;;;;;6.94;74.91;101694.00;1777224;80;21193;-70
2022/11/14 00:53:19;;;;;;;9.48;5.55;;;;;;;6.91;75.04;101686.75;1801564;78;21078;-70
2022/11/14 00:56:05;;;;;;;10.80;6.47;;;;;;;6.84;75.26;101688.35;1772524;78;21500;-71
2022/11/14 00:58:50;;;;;;;8.43;2.98;;;;;;;6.77;75.45;101691.28;1804834;78;21531;-70
2022/11/14 01:01:35;;;;;;;9.80;6.65;;;;;;;6.73;75.42;101697.58;1784617;79;21401;-71
2022/11/14 01:04:20;;;;;;;10.15;6.08;;;;;;;6.75;75.27;101698.36;1786042;79;21148;-71
2022/11/14 01:07:06;;;;;;;9.20;3.10;;;;;;;6.73;75.23;101701.50;1792041;77;21022;-70
2022/11/14 01:09:52;;;;;;;6.53;2.77;;;;;;;6.69;75.55;101692.91;1828355;76;21564;-71
2022/11/14 01:12:36;;;;;;;10.68;6.17;;;;;;;6.66;75.60;101699.61;1854174;76;20999;-70
2022/11/14 01:15:23;;;;;;;9.68;6.17;;;;;;;6.59;75.62;101694.22;1862884;76;21477;-69
2022/11/14 01:18:14;;;;;;;9.68;5.70;;;;;;;6.62;75.54;101691.05;1813707;77;21368;-70
2022/11/14 01:20:59;;;;;;;12.88;6.40;;;;;;;6.76;75.50;101698.30;1830578;76;21012;-70
2022/11/14 01:23:45;;;;;;;10.25;5.97;;;;;;;6.80;75.42;101696.39;1753172;79;21031;-70
2022/11/14 01:26:30;;;;;;;9.15;5.62;;;;;;;6.80;75.64;101697.70;1776318;79;21556;-70
2022/11/14 01:29:15;;;;;;;10.75;5.50;;;;;;;6.88;75.89;101698.22;1773331;79;21007;-70
2022/11/14 01:32:00;;;;;;;9.10;5.08;;;;;;;6.93;75.53;101694.10;1752242;79;21214;-71
2022/11/14 01:34:47;;;;;;;11.20;5.47;;;;;;;6.98;75.32;101698.67;1827523;76;22252;-70
2022/11/14 01:37:32;;;;;;;12.53;3.17;;;;;;;7.07;75.55;101695.63;1828695;77;21057;-70
2022/11/14 01:40:19;;;;;;;8.73;5.20;;;;;;;7.11;75.71;101693.29;1827957;77;28879;-70
2022/11/14 01:43:27;;;;;;;9.98;4.95;;;;;;;7.14;75.57;101695.74;1829569;77;21029;-70
2022/11/14 01:46:32;;;;;;;5.97;2.22;;;;;;;7.17;75.33;101692.99;1826030;77;21142;-70
2022/11/14 01:49:36;;;;;;;11.65;5.05;;;;;;;7.25;75.02;101697.89;1822950;76;21042;-70
2022/11/14 01:52:28;;;;;;;9.00;5.03;;;;;;;7.27;74.90;101690.81;1830768;76;21126;-70
2022/11/14 01:55:14;;;;;;;8.33;5.12;;;;;;;7.27;74.92;101699.14;1833355;76;22415;-70
2022/11/14 01:57:58;;;;;;;11.57;5.17;;;;;;;7.20;74.71;101700.72;1824266;76;21019;-70
2022/11/14 02:00:44;;;;;;;8.07;2.40;;;;;;;7.18;74.56;101709.11;1836144;76;21235;-71
2022/11/14 02:03:29;;;;;;;9.43;4.97;;;;;;;7.22;74.44;101701.48;1818673;77;21098;-70
2022/11/14 02:06:16;;;;;;;11.25;4.97;;;;;;;7.24;74.37;101704.04;1828536;76;21700;-71
2022/11/14 02:09:04;;;;;;;8.80;5.58;;;;;;;7.17;74.01;101702.16;1827816;76;21003;-69
2022/11/14 02:11:49;;;;;;;10.88;4.97;;;;;;;7.11;74.26;101703.76;1771488;79;21047;-70
2022/11/14 02:14:36;;;;;;;4.80;2.27;;;;;;;6.97;73.52;101700.42;1840225;76;21201;-71
2022/11/14 02:17:22;;;;;;;9.58;4.03;;;;;;;6.77;73.04;101694.73;1824635;77;21050;-70
2022/11/14 02:20:20;;;;;;;7.40;3.25;;;;;;;6.67;72.59;101696.92;1768555;79;21532;-70
2022/11/14 02:23:06;;;;;;;9.05;4.37;;;;;;;6.60;73.22;101693.31;1761378;80;21071;-70
2022/11/14 02:25:51;;;;;;;7.97;1.98;;;;;;;6.64;74.12;101698.80;1767634;80;21020;-69
2022/11/14 02:28:37;;;;;;;8.13;4.20;;;;;;;6.62;74.47;101698.89;1773446;80;25223;-70
2022/11/14 02:31:23;;;;;;;6.63;2.47;;;;;;;6.68;74.71;101697.77;1814608;77;21421;-70
2022/11/14 02:34:08;;;;;;;10.32;5.03;;;;;;;6.72;74.17;101703.25;1836959;76;20975;-68
2022/11/14 02:36:53;;;;;;;9.58;4.80;;;;;;;6.63;73.89;101701.03;1828049;76;21442;-70
2022/11/14 02:39:40;;;;;;;9.05;4.72;;;;;;;6.48;74.09;101702.06;1744082;81;21059;-70
2022/11/14 02:42:25;;;;;;;4.63;2.17;;;;;;;6.35;74.28;101702.17;1831562;77;21114;-69
2022/11/14 02:45:11;;;;;;;8.30;4.70;;;;;;;6.28;74.21;101704.19;1838375;77;21543;-70
2022/11/14 02:47:56;;;;;;;7.60;4.25;;;;;;;6.25;74.04;101704.31;1814389;77;21011;-70
2022/11/14 02:50:41;;;;;;;5.62;2.10;;;;;;;6.19;74.04;101706.35;1781870;79;21560;-70
2022/11/14 02:53:26;;;;;;;6.37;2.80;;;;;;;6.05;74.23;101699.92;1749017;80;21023;-70
2022/11/14 02:56:12;;;;;;;;;;;;;;;5.93;74.41;101703.84;1756814;79;21137;-70
2022/11/14 02:58:58;;;;;;;8.20;5.00;;;;;;;5.84;74.48;101709.88;1752819;79;20655;-69
2022/11/14 03:01:43;;;;;;;8.75;4.97;;;;;;;5.77;74.51;101713.17;1763051;79;21053;-70
2022/11/14 03:04:28;;;;;;;6.03;2.52;;;;;;;5.77;74.40;101712.70;1743424;80;21548;-69
2022/11/14 03:07:13;;;;;;;9.53;5.53;;;;;;;5.74;74.48;101710.67;1745617;81;21039;-69
2022/11/14 03:09:59;;;;;;;9.20;5.67;;;;;;;5.71;74.74;101712.09;1746758;80;21035;-71
2022/11/14 03:12:44;;;;;;;10.93;6.35;;;;;;;5.62;74.76;101702.86;1741083;80;21453;-69
2022/11/14 03:15:29;;;;;;;9.28;5.17;;;;;;;5.58;74.70;101706.48;1730949;80;21022;-69
2022/11/14 03:18:16;;;;;;;9.13;4.95;;;;;;;5.56;74.62;101701.34;1753690;79;21074;-69
2022/11/14 03:21:12;;;;;;;7.20;2.75;;;;;;;5.57;74.48;101694.34;1752280;80;21071;-69
2022/11/14 03:23:57;;;;;;;9.68;5.95;;;;;;;5.58;74.64;101701.25;1740608;81;22119;-69
2022/11/14 03:26:43;;;;;;;6.75;2.55;;;;;;;5.53;74.79;101698.84;1747283;80;21012;-69
2022/11/14 03:29:28;;;;;;;6.22;2.60;;;;;;;5.48;74.92;101699.91;1752902;81;21070;-70
2022/11/14 03:32:14;;;;;;;10.88;3.08;;;;;;;5.41;74.96;101704.50;1747182;79;21043;-70
2022/11/14 03:34:59;;;;;;;6.25;2.37;;;;;;;5.37;74.82;101714.21;1760659;79;21021;-69
2022/11/14 03:37:44;;;;;;;11.08;6.20;;;;;;;5.40;74.58;101718.48;1752442;79;21912;-69
2022/11/14 03:40:29;;;;;;;12.25;7.42;;;;;;;5.37;74.58;101714.67;1751687;80;21039;-71
2022/11/14 03:43:17;;;;;;;7.85;3.33;;;;;;;5.32;74.62;101713.53;1755212;81;21054;-71
2022/11/14 03:46:03;;;;;;;8.35;3.98;;;;;;;5.25;74.67;101725.58;1750952;79;21034;-71
2022/11/14 03:48:48;;;;;;;8.80;3.90;;;;;;;5.21;74.90;101719.59;1710049;81;21035;-70
2022/11/14 03:51:34;;;;;;;12.07;6.92;;;;;;;5.26;75.03;101723.34;1777269;79;21314;-70
2022/11/14 03:54:19;;;;;;;7.90;4.05;;;;;;;5.33;74.78;101723.51;1802991;79;21003;-72
2022/11/14 03:57:04;;;;;;;12.15;6.97;;;;;;;5.35;74.56;101720.41;1753709;80;21020;-71
2022/11/14 03:59:49;;;;;;;14.00;8.53;;;;;;;5.28;74.60;101721.09;1801086;77;21011;-72
2022/11/14 04:02:34;;;;;;;9.47;3.60;;;;;;;5.23;74.64;101729.97;1756415;81;21039;-71
2022/11/14 04:05:19;;;;;;;11.97;7.45;;;;;;;5.09;74.55;101717.43;1739275;80;21266;-71
2022/11/14 04:08:06;;;;;;;13.53;8.13;;;;;;;5.00;74.63;101727.74;1781600;78;21025;-71
2022/11/14 04:10:51;;;;;;;15.80;7.60;;;;;;;4.97;74.48;101720.86;1802516;79;21042;-72
2022/11/14 04:13:36;;;;;;;13.45;8.38;;;;;;;4.95;74.52;101723.98;1794589;77;21065;-72
2022/11/14 04:16:22;;;;;;;7.85;3.40;;;;;;;4.90;74.72;101727.67;1803783;78;21028;-71
2022/11/14 04:19:07;;;;;;;14.33;8.53;;;;;;;4.82;74.84;101727.92;1750540;80;21238;-72
2022/11/14 04:21:53;;;;;;;9.75;4.25;;;;;;;4.73;74.99;101721.27;1784725;78;21019;-70
2022/11/14 04:24:39;;;;;;;12.25;5.25;;;;;;;4.72;74.99;101723.47;1789295;78;21568;-71
2022/11/14 04:27:24;;;;;;;15.75;9.55;;;;;;;4.77;74.79;101723.31;1802977;78;21035;-71
2022/11/14 04:30:11;;;;;;;16.02;9.48;;;;;;;4.73;74.86;101723.88;1790624;78;21053;-71
2022/11/14 04:32:56;;;;;;;9.58;4.17;;;;;;;4.66;75.02;101725.00;1794835;77;25623;-71
2022/11/14 04:35:41;;;;;;;13.22;8.98;;;;;;;4.57;75.05;101731.38;1797253;78;21035;-71
2022/11/14 04:38:26;;;;;;;9.63;3.98;;;;;;;4.46;75.17;101723.89;1796553;78;21039;-71
2022/11/14 04:41:11;;;;;;;9.80;4.65;;;;;;;4.46;75.16;101725.66;1798629;77;20999;-70
2022/11/14 04:43:56;;;;;;;14.18;8.85;;;;;;;4.51;75.12;101726.36;1790872;79;21033;-71
2022/11/14 04:46:41;;;;;;;13.27;3.70;;;;;;;4.53;75.14;101740.19;1787143;79;21237;-71
2022/11/14 04:49:27;;;;;;;13.62;8.80;;;;;;;4.49;75.26;101733.39;1800533;78;21086;-71
2022/11/14 04:52:12;;;;;;;14.83;7.97;;;;;;;4.44;75.42;101743.11;1792703;78;21547;-71
2022/11/14 04:54:57;;;;;;;11.68;6.35;;;;;;;4.39;75.57;101739.34;1802464;78;21018;-71
2022/11/14 04:57:42;;;;;;;17.00;9.93;;;;;;;4.44;75.51;101744.41;1794888;79;21015;-71
2022/11/14 05:00:27;;;;;;;9.28;5.50;;;;;;;4.50;75.44;101753.78;1798400;77;21992;-70
2022/11/14 05:03:12;;;;;;;10.65;3.83;;;;;;;4.54;75.39;101752.77;1804280;77;21010;-71
2022/11/14 05:06:01;;;;;;;10.65;4.83;;;;;;;4.49;75.13;101759.88;1787685;79;21038;-71
2022/11/14 05:08:47;;;;;;;11.63;5.22;;;;;;;4.39;74.96;101767.17;1795369;79;21044;-72
2022/11/14 05:11:34;;;;;;;16.75;11.00;;;;;;;4.27;74.86;101771.86;1800553;79;21075;-72
2022/11/14 05:14:19;;;;;;;15.98;10.80;;;;;;;4.22;74.82;101778.09;1755158;79;21338;-71
2022/11/14 05:17:04;;;;;;;14.07;5.85;;;;;;;4.19;74.75;101775.16;1766087;79;20973;-70
2022/11/14 05:19:49;;;;;;;13.08;5.42;;;;;;;4.30;74.61;101777.88;1778211;78;21022;-71
2022/11/14 05:22:34;;;;;;;11.28;5.12;;;;;;;4.38;74.67;101778.02;1843545;76;21019;-73
2022/11/14 05:25:20;;;;;;;19.02;11.48;;;;;;;4.35;74.99;101772.06;1767360;78;21037;-72
2022/11/14 05:28:05;;;;;;;10.38;5.62;;;;;;;4.34;75.24;101774.25;1853517;76;21211;-72
2022/11/14 05:30:51;;;;;;;13.32;6.42;;;;;;;4.32;75.39;101783.88;1820871;77;21002;-70
2022/11/14 05:33:37;;;;;;;11.88;5.12;;;;;;;4.33;75.28;101780.38;1835305;77;25703;-71
2022/11/14 05:36:22;;;;;;;14.85;10.68;;;;;;;4.38;75.07;101779.78;1817299;77;21433;-72
2022/11/14 05:39:08;;;;;;;20.60;12.50;;;;;;;4.41;75.10;101778.39;1825308;77;21137;-70
2022/11/14 05:41:53;;;;;;;26.00;13.88;;;;;;;4.40;75.27;101774.06;1814560;77;21896;-71
2022/11/14 05:44:39;;;;;;;;;;;;;;;4.38;75.32;101774.11;1819450;77;21007;-71
2022/11/14 05:47:24;;;;;;;12.88;6.10;;;;;;;4.34;75.34;101774.25;1834698;77;20436;-71
2022/11/14 05:50:10;;;;;;;10.55;6.30;;;;;;;4.35;75.06;101781.18;1819444;77;21943;-71
2022/11/14 05:52:57;;;;;;;15.40;6.97;;;;;;;4.36;74.62;101779.83;1851730;76;21539;-72
2022/11/14 05:55:42;;;;;;;20.77;13.60;;;;;;;4.34;74.75;101783.38;1826204;76;21134;-72
2022/11/14 05:58:27;;;;;;;17.70;11.60;;;;;;;4.38;74.75;101787.14;1828578;76;21524;-72
2022/11/14 06:04:20;;;;;;;10.00;4.95;;;;;;;4.27;75.73;101785.34;1821266;76;22978;-94
2022/11/14 06:07:06;;;;;;;10.48;4.75;;;;;;;4.38;75.30;101785.84;1813447;77;21046;-94
2022/11/14 06:12:35;;;;;;;9.78;5.35;;;;;;;4.36;75.45;101787.65;1624071;86;21042;-94
2022/11/14 06:15:21;;;;;;;10.88;4.47;;;;;;;4.36;75.39;101790.72;1613094;88;21042;-95
2022/11/14 06:18:06;;;;;;;9.73;4.50;;;;;;;4.50;74.94;101790.27;1621314;87;21141;-95
2022/11/14 06:20:53;;;;;;;12.60;4.75;;;;;;;4.53;74.94;101788.41;1604752;85;21814;-94
2022/11/14 06:23:39;;;;;;;10.78;4.25;;;;;;;4.46;75.33;101791.66;1578364;88;21446;-95
2022/11/14 06:26:30;;;;;;;15.65;9.43;;;;;;;4.44;75.65;101791.33;1587837;84;21685;-95
2022/11/14 06:29:15;;;;;;;13.48;4.92;;;;;;;4.48;75.79;101795.53;1584978;87;21079;-96
2022/11/14 06:32:02;;;;;;;12.68;8.63;;;;;;;4.61;75.50;101790.33;1581780;88;21088;-95
2022/11/14 06:34:48;;;;;;;11.35;4.15;;;;;;;4.73;75.45;101795.59;1605935;87;21111;-93
2022/11/14 06:37:36;;;;;;;6.58;3.37;;;;;;;4.86;75.69;101805.17;1592067;88;22565;-93
2022/11/14 06:40:22;;;;;;;11.80;8.18;;;;;;;4.94;75.71;101804.89;1592277;86;21633;-93
2022/11/14 06:43:07;;;;;;;13.00;8.60;;;;;;;4.99;75.76;101806.47;1589140;88;21120;-93
2022/11/14 06:45:54;;;;;;;11.15;4.08;;;;;;;5.06;75.39;101811.02;1619802;86;21110;-93
2022/11/14 06:48:39;;;;;;;11.88;8.20;;;;;;;5.12;75.09;101811.25;1613788;86;21057;-94
2022/11/14 06:51:25;;;;;;;9.00;3.40;;;;;;;5.15;75.25;101809.85;1615833;85;21576;-94
2022/11/14 06:54:11;;;;;;;10.75;7.53;;;;;;;5.09;75.71;101802.22;1651412;83;21151;-93
2022/11/14 06:56:59;;;;;;;15.75;5.17;;;;;;;5.09;75.83;101800.45;1679229;82;66651;-86
2022/11/14 07:00:04;;;;;;;11.10;7.12;;;;;;;5.15;75.82;101802.02;1708931;83;21028;-88
2022/11/14 07:03:04;;;;;;;16.62;7.75;;;;;;;5.28;75.62;101798.52;1688564;83;21545;-87
2022/11/14 07:06:27;;;;;;;15.35;8.55;;;;;;;5.37;75.68;101807.34;1678687;82;21180;-87
2022/11/14 07:12:16;;;;;;;9.60;4.20;;;;;;;5.49;76.23;101807.35;1698948;81;21065;-88
2022/11/14 07:15:28;;;;;;;13.78;8.90;;;;;;;5.70;75.99;101805.70;1733800;81;21180;-88
2022/11/14 07:18:33;;;;;;;10.30;4.92;;;;;;;5.85;75.40;101810.82;1692498;81;21106;-86
2022/11/14 07:21:17;;;;;;;13.28;9.13;;;;;;;5.93;75.54;101820.09;1673719;82;21193;-87
2022/11/14 07:34:15;;;;;;;11.80;4.85;;;;;;;6.50;74.16;101827.52;1548394;90;21454;-87
2022/11/14 07:37:49;;;;;;;;;;;;;;;;;;;;;
2022/11/14 07:40:40;;;;;;;13.15;7.15;;;;;;;6.58;73.41;101826.76;1608762;87;21911;-87
2022/11/14 07:43:47;;;;;;;13.30;8.23;;;;;;;6.65;73.24;101821.67;1635584;84;21188;-88
2022/11/14 07:46:48;;;;;;;15.83;8.75;;;;;;;6.67;73.25;101811.14;1641356;85;21102;-89
2022/11/14 07:50:05;;;;;;;15.98;9.38;;;;;;;6.77;73.68;101819.01;1642104;85;21128;-87
2022/11/14 07:57:24;;;;;;;13.83;8.63;;;;;;;6.99;73.30;101807.22;1697094;82;21049;-88
2022/11/14 08:03:32;;;;;;;21.20;11.75;;;;;;;7.16;73.44;101810.86;1507411;91;21240;-87
2022/11/14 08:07:20;;;;;;;;;;;;;;;;;;;;;
2022/11/14 08:25:50;;;;;;;19.00;12.03;;;;;;;7.82;71.02;101784.38;1318549;105;21231;-88
2022/11/14 08:31:37;;;;;;;30.95;15.72;;;;;;;7.82;71.29;101786.99;1402336;99;21116;-87
2022/11/14 08:34:46;;;;;;;22.07;13.72;;;;;;;7.91;70.98;101788.34;1551969;90;21110;-87
2022/11/14 08:37:41;;;;;;;13.13;6.17;;;;;;;8.04;70.46;101787.31;1563688;90;21651;-86
2022/11/14 08:40:30;;;;;;;24.50;14.60;;;;;;;8.11;70.39;101790.87;1557154;89;21522;-86
2022/11/14 08:43:18;;;;;;;29.02;12.70;;;;;;;8.10;69.60;101791.80;1640723;83;21062;-86
2022/11/14 08:46:04;;;;;;;19.20;12.15;;;;;;;8.15;69.33;101791.56;1656834;84;21133;-86
2022/11/14 08:48:59;;;;;;;23.92;13.38;;;;;;;8.30;69.22;101793.92;1639492;86;20995;-86
2022/11/14 08:51:45;;;;;;;20.77;13.75;;;;;;;8.40;69.11;101786.47;1658237;84;21648;-87
2022/11/14 08:54:40;;;;;;;24.52;13.35;;;;;;;8.49;68.84;101785.59;1677682;82;21476;-87
2022/11/14 08:57:30;;;;;;;20.88;11.30;;;;;;;8.53;68.53;101783.20;1676606;82;21085;-87
2022/11/14 09:00:37;;;;;;;26.57;12.75;;;;;;;8.57;66.81;101780.43;1681427;82;21038;-88
2022/11/14 09:06:32;;;;;;;24.80;10.40;;;;;;;8.71;67.04;101781.92;1670782;83;21023;-88
2022/11/14 09:09:34;;;;;;;22.22;10.98;;;;;;;8.82;66.55;101783.99;1684987;82;21462;-87
2022/11/14 09:12:32;;;;;;;20.15;10.98;;;;;;;8.88;66.45;101779.28;1673711;83;21441;-86
2022/11/14 09:15:22;;;;;;;24.25;10.10;;;;;;;8.96;66.27;101776.28;1663150;84;21038;-86
2022/11/14 09:18:43;;;;;;;20.65;10.10;;;;;;;8.97;65.81;101772.71;1688735;82;21023;-86
2022/11/14 09:21:33;;;;;;;19.42;9.60;;;;;;;8.95;65.59;101770.64;1664481;83;21532;-86
2022/11/14 09:24:33;;;;;;;18.00;8.73;;;;;;;8.99;65.36;101763.45;1677996;83;21145;-86
2022/11/14 09:27:25;;;;;;;20.32;9.38;;;;;;;9.09;65.14;101766.85;1672404;82;21014;-86
2022/11/14 09:30:16;;;;;;;23.20;9.03;;;;;;;9.15;64.91;101764.84;1664550;84;21073;-86
2022/11/14 09:33:03;;;;;;;15.68;7.67;;;;;;;9.20;64.42;101757.56;1652410;82;21185;-86
2022/11/14 09:36:14;;;;;;;17.70;7.53;;;;;;;9.18;64.46;101746.27;1643425;84;21751;-88
2022/11/14 09:39:02;;;;;;;20.70;8.28;;;;;;;9.20;64.41;101756.25;1652627;85;21217;-86
2022/11/14 09:42:29;;;;;;;22.27;8.33;;;;;;;9.18;64.08;101756.33;1673773;83;21517;-85
2022/11/14 09:45:17;;;;;;;13.13;7.85;;;;;;;9.26;63.23;101751.52;1632019;84;21114;-84
2022/11/14 09:48:20;;;;;;;14.58;7.42;;;;;;;9.37;63.20;101752.26;1617556;86;21080;-84
2022/11/14 09:51:11;;;;;;;17.12;8.28;;;;;;;9.35;63.05;101746.24;1665669;82;21031;-85
2022/11/14 09:54:20;;;;;;;14.43;7.22;;;;;;;9.36;63.41;101745.30;1675135;84;21186;-85
2022/11/14 09:57:19;;;;;;;13.88;7.72;;;;;;;9.39;63.22;101745.14;1665002;83;21505;-85
2022/11/14 10:00:37;;;;;;;13.32;7.22;;;;;;;9.43;63.13;101743.19;1656211;84;21165;-85
2022/11/14 10:03:53;;;;;;;9.90;6.15;;;;;;;9.52;62.98;101747.12;1615599;85;21040;-84
2022/11/14 10:07:20;;;;;;;13.45;6.90;;;;;;;9.58;62.88;101737.14;1618115;84;21082;-85
2022/11/14 10:12:41;;;;;;;9.75;5.37;;;;;;;9.39;63.01;101732.00;1791684;77;22499;-95
2022/11/14 10:15:36;;;;;;;8.48;4.42;;;;;;;9.48;62.41;101728.89;1738265;80;20961;-96
2022/11/14 10:18:53;;;;;;;8.50;5.20;;;;;;;9.51;61.98;101736.22;1766334;80;21751;-96
2022/11/14 10:25:24;;;;;;;7.28;4.05;;;;;;;9.37;62.18;101723.36;1764067;80;20963;-96
2022/11/14 10:28:55;;;;;;;11.55;7.15;;;;;;;9.40;61.43;101714.48;1709952;82;21038;-95
2022/11/14 10:32:11;;;;;;;10.13;7.12;;;;;;;9.41;62.61;101727.50;1721167;81;21567;-95
2022/11/14 10:35:15;;;;;;;9.90;7.08;;;;;;;9.38;62.79;101729.45;1720712;81;20937;-95
2022/11/14 10:38:17;;;;;;;11.55;7.55;;;;;;;9.40;63.34;101724.52;1725719;82;21497;-94
2022/11/14 10:41:04;;;;;;;11.65;7.35;;;;;;;9.46;63.27;101718.07;1706689;83;21059;-96
2022/11/14 10:43:50;;;;;;;14.73;8.28;;;;;;;9.51;62.71;101713.41;1728405;82;21027;-96
2022/11/14 10:46:51;;;;;;;13.98;7.37;;;;;;;9.59;63.11;101719.10;1726755;83;20931;-96
2022/11/14 10:49:38;;;;;;;11.60;7.47;;;;;;;9.71;63.08;101713.64;1590431;88;21183;-55
2022/11/14 10:52:28;;;;;;;14.95;9.95;;;;;;;9.83;62.12;101711.66;1586798;88;21578;-56
2022/11/14 10:55:17;;;;;;;15.30;10.60;;;;;;;9.87;62.59;101701.82;1586778;88;21129;-55
2022/11/14 10:58:09;;;;;;;17.07;10.48;;;;;;;9.94;62.54;101708.90;1588180;88;21103;-56
2022/11/14 11:00:55;;;;;;;16.45;10.55;;;;;;;9.85;62.51;101704.53;1591097;88;21610;-55
2022/11/14 11:03:42;;;;;;;14.75;10.05;;;;;;;9.83;63.09;101705.53;1586397;88;21121;-56
2022/11/14 11:06:27;;;;;;;15.90;11.40;;;;;;;9.90;63.14;101704.28;1576022;89;21120;-57
2022/11/14 11:12:46;;;;;;;13.10;9.20;;;;;;;9.92;62.56;101707.67;1571591;89;21173;-56
2022/11/14 11:15:33;;;;;;;16.80;10.68;;;;;;;9.97;62.23;101708.70;1575680;89;21100;-55
2022/11/14 11:18:31;;;;;;;17.35;11.20;;;;;;;10.08;62.28;101707.63;1580930;89;22112;-54
2022/11/14 11:21:21;;;;;;;14.58;9.98;;;;;;;10.20;62.06;101702.14;1578732;89;21777;-56
2022/11/14 11:24:07;;;;;;;15.10;11.18;;;;;;;10.32;61.55;101704.56;1579882;89;21219;-55
2022/11/14 11:27:24;;;;;;;15.43;11.48;;;;;;;10.36;61.10;101702.98;1575925;89;21533;-56
2022/11/14 11:30:21;;;;;;;16.62;11.43;;;;;;;10.56;60.70;101698.36;1595046;88;21148;-55
2022/11/14 11:33:23;;;;;;;15.35;11.78;;;;;;;10.46;61.11;101703.31;1587664;88;21259;-55
2022/11/14 11:36:17;;;;;;;15.98;11.00;;;;;;;10.66;60.86;101699.50;1591296;88;21651;-55
2022/11/14 11:39:02;;;;;;;14.45;10.63;;;;;;;10.73;60.89;101697.35;1604223;88;21067;-56
2022/11/14 11:41:48;;;;;;;15.80;11.63;;;;;;;10.80;60.02;101705.73;1586105;88;21106;-56
2022/11/14 11:44:46;;;;;;;13.90;10.98;;;;;;;10.72;60.04;101698.28;1587724;88;21535;-56
2022/11/14 11:47:33;;;;;;;16.12;11.73;;;;;;;10.66;60.30;101698.19;1589764;88;21203;-55
2022/11/14 11:50:19;;;;;;;16.65;11.15;;;;;;;10.69;60.08;101691.88;1611416;87;21088;-56
2022/11/14 11:53:25;;;;;;;17.07;10.68;;;;;;;10.70;59.89;101697.05;1612797;87;21029;-55
2022/11/14 11:56:22;;;;;;;19.17;11.22;;;;;;;10.78;59.49;101692.66;1608449;87;21121;-56
2022/11/14 11:59:34;;;;;;;15.37;9.47;;;;;;;10.80;59.12;101695.20;1610632;87;21126;-56
2022/11/14 12:02:23;;;;;;;15.98;10.40;;;;;;;10.86;59.22;101690.86;1612557;87;21999;-56
2022/11/14 12:05:14;;;;;;;19.07;11.00;;;;;;;10.97;59.09;101689.75;1607932;87;21081;-56
2022/11/14 12:08:08;;;;;;;19.82;11.70;;;;;;;11.01;58.60;101693.91;1608677;87;21047;-55
2022/11/14 12:10:53;;;;;;;18.75;11.68;;;;;;;11.05;58.72;101689.30;1609693;87;21109;-55
2022/11/14 12:13:46;;;;;;;;;;;;;;;11.12;58.75;101690.60;1611640;87;21085;-55
2022/11/14 12:17:02;;;;;;;14.68;11.00;;;;;;;11.16;58.35;101685.51;1610512;87;21123;-56
2022/11/14 12:20:45;;;;;;;14.80;10.50;;;;;;;11.10;58.65;101681.95;1608260;87;21153;-56
2022/11/14 12:23:35;;;;;;;15.00;11.28;;;;;;;11.09;58.54;101686.36;1610939;87;21588;-57
2022/11/14 12:26:47;;;;;;;14.07;8.48;;;;;;;11.10;58.61;101689.38;1610017;87;22416;-56
2022/11/14 12:30:01;;;;;;;7.97;2.40;;;;;;;11.20;58.54;101676.97;1609120;87;21145;-55
2022/11/14 12:33:10;;;;;;;3.25;1.17;;;;;;;12.83;54.18;101676.91;1601893;87;22337;-55
2022/11/14 12:35:59;;;;;;;5.05;1.15;;;;;;;14.51;47.85;101674.06;1655399;85;21124;-55
2022/11/14 12:38:48;;;;;;;5.35;1.27;;;;;;;15.73;44.00;101664.52;1655371;85;21488;-56
2022/11/14 12:41:34;;;;;;;9.13;1.92;;;;;;;15.36;44.43;101669.66;1655876;85;21055;-55
2022/11/14 12:44:31;;;;;;;5.50;1.50;;;;;;;15.96;42.25;101666.66;1654476;85;21071;-55
2022/11/14 12:47:24;;;;;;;7.50;1.85;;;;;;;15.76;41.77;101657.67;1654915;85;21130;-55
2022/11/14 12:50:33;;;;;;;6.70;2.30;;;;;;;16.14;41.60;101654.50;1652470;85;21403;-56
2022/11/14 12:53:36;;;;;;;5.12;2.10;;;;;;;15.74;41.58;101659.09;1655862;85;21104;-55
2022/11/14 12:56:36;;;;;;;8.35;2.10;;;;;;;16.15;41.85;101654.02;1653928;85;21065;-55
2022/11/14 12:59:39;;;;;;;4.65;1.20;;;;;;;16.33;41.38;101660.44;1656078;85;21512;-55
2022/11/14 13:02:52;;;;;;;4.47;1.30;;;;;;;16.70;40.55;101659.12;1659449;85;22025;-55
2022/11/14 13:06:00;;;;;;;3.42;0.90;;;;;;;17.04;39.94;101651.75;1654832;85;21088;-54
2022/11/14 13:08:53;;;;;;;5.28;1.30;;;;;;;17.48;38.90;101650.62;1654382;85;21068;-56
2022/11/14 13:21:45;;;;;;;8.25;2.27;;;;;;;16.73;39.31;101654.88;1654609;85;21116;-56
2022/11/14 13:25:03;;;;;;;6.33;2.35;;;;;;;16.73;39.59;101650.90;1657589;85;21057;-56
2022/11/14 13:27:48;;;;;;;5.78;2.00;;;;;;;16.59;39.71;101652.06;1652139;85;21062;-55
2022/11/14 13:31:17;;;;;;;5.70;1.98;;;;;;;16.40;39.95;101650.14;1657463;85;21145;-54
2022/11/14 13:34:42;;;;;;;7.37;2.22;;;;;;;16.26;40.32;101653.96;1658621;85;22498;-55
2022/11/14 13:37:45;;;;;;;6.65;2.30;;;;;;;16.02;41.27;101650.23;1653025;85;21548;-55
2022/11/14 13:41:20;;;;;;;8.13;2.42;;;;;;;15.77;41.19;101652.24;1649811;85;21054;-54
2022/11/14 13:44:17;;;;;;;5.55;2.17;;;;;;;15.17;42.24;101654.87;1635436;85;21045;-54
2022/11/14 13:47:14;;;;;;;5.90;2.45;;;;;;;14.17;43.73;101655.44;1653967;85;21615;-54
2022/11/14 13:50:11;;;;;;;7.42;2.47;;;;;;;13.34;45.30;101661.48;1659116;84;21185;-54
2022/11/14 13:52:56;;;;;;;6.45;3.05;;;;;;;12.65;46.98;101659.20;1661028;84;21084;-58
2022/11/14 13:57:59;;;;;;;8.78;3.10;;;;;;;11.41;50.06;101651.88;1793376;78;22675;-69
2022/11/14 14:01:29;;;;;;;7.45;2.95;;;;;;;11.12;50.87;101651.09;1775507;78;21627;-71
2022/11/14 14:04:48;;;;;;;7.25;2.60;;;;;;;10.72;51.91;101654.84;1763858;78;21140;-72
2022/11/14 14:08:14;;;;;;;6.20;2.80;;;;;;;10.38;53.05;101659.01;1775145;79;21011;-71
2022/11/14 14:11:31;;;;;;;11.48;3.47;;;;;;;10.11;53.93;101665.38;1762333;80;21030;-70
2022/11/14 14:14:48;;;;;;;7.97;2.98;;;;;;;9.91;54.59;101660.42;1772559;80;21044;-69
2022/11/14 14:17:42;;;;;;;6.87;3.08;;;;;;;9.74;55.25;101664.01;1776595;80;21151;-72
2022/11/14 14:24:05;;;;;;;7.12;2.83;;;;;;;9.48;56.74;101662.34;1634780;84;68722;-50
2022/11/14 14:27:23;;;;;;;6.42;2.83;;;;;;;9.36;57.20;101658.61;1633056;86;20999;-49
2022/11/14 14:30:13;;;;;;;6.62;3.42;;;;;;;9.22;57.53;101656.73;1660188;84;21093;-49
2022/11/14 14:33:11;;;;;;;7.67;3.67;;;;;;;9.05;58.10;101660.74;1664723;84;21046;-49
2022/11/14 14:35:57;;;;;;;5.80;2.72;;;;;;;8.99;58.43;101659.27;1660183;84;22143;-49
2022/11/14 14:38:43;;;;;;;9.78;3.42;;;;;;;8.97;58.65;101662.92;1632454;87;20939;-50
2022/11/14 14:41:31;;;;;;;7.58;2.92;;;;;;;8.91;58.91;101664.94;1663038;84;21142;-50
2022/11/14 14:44:28;;;;;;;7.17;2.95;;;;;;;8.85;59.12;101665.73;1662812;84;21061;-49